createdAt,value
2023-04-28T00:01:42.014Z,99253.64
2023-04-28T00:04:09.097Z,99257.58
2023-04-28T00:06:37.234Z,99260.11
2023-04-28T00:09:04.215Z,99260.38
2023-04-28T00:11:31.017Z,99259.48
2023-04-28T00:13:58.085Z,99258.20
2023-04-28T00:16:24.931Z,99264.85
2023-04-28T00:18:52.087Z,99269.09
2023-04-28T00:21:19.115Z,99270.40
2023-04-28T00:23:46.038Z,99270.69
2023-04-28T00:26:12.776Z,99271.84
2023-04-28T00:28:40.555Z,99279.20
2023-04-28T00:31:12.591Z,99272.27
2023-04-28T00:33:43.606Z,99275.84
2023-04-28T00:36:11.191Z,99272.69
2023-04-28T00:38:37.993Z,99271.96
2023-04-28T00:41:04.849Z,99274.34
2023-04-28T00:43:31.625Z,99277.23
2023-04-28T00:45:58.496Z,99275.30
2023-04-28T00:48:25.475Z,99276.45
2023-04-28T00:50:52.339Z,99278.13
2023-04-28T00:53:19.086Z,99283.08
2023-04-28T00:55:45.896Z,99282.02
2023-04-28T00:58:12.631Z,99284.38
2023-04-28T01:00:39.491Z,99289.02
2023-04-28T01:03:06.618Z,99289.84
2023-04-28T01:05:34.025Z,99291.00
2023-04-28T01:08:00.853Z,99289.92
2023-04-28T01:10:27.588Z,99291.77
2023-04-28T01:12:55.039Z,99291.06
2023-04-28T01:15:21.982Z,99292.73
2023-04-28T01:17:51.272Z,99298.35
2023-04-28T01:20:18.264Z,99304.14
2023-04-28T01:22:45.110Z,99309.58
2023-04-28T01:25:11.925Z,99309.20
2023-04-28T01:27:38.685Z,99308.11
2023-04-28T01:30:06.909Z,99307.53
2023-04-28T01:32:34.049Z,99304.05
2023-04-28T01:35:03.544Z,99301.79
2023-04-28T01:37:30.689Z,99298.64
2023-04-28T01:39:57.526Z,99295.36
2023-04-28T01:42:25.388Z,99298.59
2023-04-28T01:44:53.163Z,99299.61
2023-04-28T01:47:20.617Z,99296.82
2023-04-28T01:49:48.391Z,99296.09
2023-04-28T01:52:15.332Z,99299.15
2023-04-28T01:54:42.304Z,99303.75
2023-04-28T01:57:09.689Z,99304.39
2023-04-28T01:59:36.904Z,99306.76
2023-04-28T02:02:05.659Z,99306.39
2023-04-28T02:04:33.084Z,99307.89
2023-04-28T02:06:59.930Z,99312.84
2023-04-28T02:09:27.273Z,99315.20
2023-04-28T02:11:53.990Z,99314.98
2023-04-28T02:14:21.382Z,99318.55
2023-04-28T02:16:48.153Z,99316.63
2023-04-28T02:19:15.679Z,99322.77
2023-04-28T02:21:43.204Z,99320.48
2023-04-28T02:24:10.067Z,99325.39
2023-04-28T02:26:36.820Z,99326.20
2023-04-28T02:29:06.625Z,99327.52
2023-04-28T02:31:33.438Z,99330.95
2023-04-28T02:34:00.406Z,99329.91
2023-04-28T02:36:27.910Z,99335.04
2023-04-28T02:38:54.743Z,99337.62
2023-04-28T02:41:21.568Z,99342.62
2023-04-28T02:43:48.423Z,99339.73
2023-04-28T02:46:15.284Z,99342.83
2023-04-28T02:48:42.497Z,99340.97
2023-04-28T02:51:10.777Z,99341.16
2023-04-28T02:53:38.063Z,99340.87
2023-04-28T02:56:05.285Z,99339.37
2023-04-28T02:58:32.986Z,99346.08
2023-04-28T03:00:59.924Z,99345.27
2023-04-28T03:03:26.895Z,99345.45
2023-04-28T03:05:53.803Z,99347.71
2023-04-28T03:08:21.154Z,99347.08
2023-04-28T03:10:48.012Z,99349.21
2023-04-28T03:13:15.076Z,99354.27
2023-04-28T03:15:42.431Z,99355.52
2023-04-28T03:18:09.438Z,99355.71
2023-04-28T03:20:36.614Z,99359.36
2023-04-28T03:23:03.720Z,99358.98
2023-04-28T03:25:30.651Z,99358.01
2023-04-28T03:27:57.600Z,99360.34
2023-04-28T03:30:24.356Z,99360.27
2023-04-28T03:32:51.261Z,99363.77
2023-04-28T03:35:18.244Z,99362.66
2023-04-28T03:37:44.999Z,99364.03
2023-04-28T03:40:12.713Z,99365.66
2023-04-28T03:42:55.001Z,99366.70
2023-04-28T03:45:31.986Z,99362.61
2023-04-28T03:47:59.125Z,99368.55
2023-04-28T03:50:26.802Z,99370.21
2023-04-28T03:52:54.296Z,99371.27
2023-04-28T03:55:21.158Z,99371.70
2023-04-28T03:57:47.989Z,99372.10
2023-04-28T04:00:14.930Z,99376.33
2023-04-28T04:02:46.035Z,99377.73
2023-04-28T04:05:13.079Z,99373.13
2023-04-28T04:07:41.030Z,99374.46
2023-04-28T04:10:08.511Z,99379.69
2023-04-28T04:12:36.283Z,99382.46
2023-04-28T04:15:04.196Z,99386.95
2023-04-28T04:17:31.744Z,99385.39
2023-04-28T04:19:58.594Z,99387.27
2023-04-28T04:22:27.178Z,99390.81
2023-04-28T04:24:53.923Z,99393.33
2023-04-28T04:27:20.884Z,99399.31
2023-04-28T04:29:47.735Z,99404.96
2023-04-28T04:32:15.022Z,99404.93
2023-04-28T04:34:42.378Z,99406.80
2023-04-28T04:37:09.658Z,99409.45
2023-04-28T04:39:40.884Z,99404.73
2023-04-28T04:42:23.168Z,99402.23
2023-04-28T04:45:12.461Z,99400.80
2023-04-28T04:47:39.683Z,99407.88
2023-04-28T04:50:07.621Z,99407.87
2023-04-28T04:52:34.366Z,99411.49
2023-04-28T05:00:29.475Z,99408.89
2023-04-28T05:02:57.150Z,99408.20
2023-04-28T05:05:24.208Z,99410.13
2023-04-28T05:08:12.854Z,99411.50
2023-04-28T05:10:40.478Z,99415.66
2023-04-28T05:13:07.615Z,99419.12
2023-04-28T05:15:34.825Z,99415.13
2023-04-28T05:25:29.046Z,99413.23
2023-04-28T05:27:56.564Z,99416.36
2023-04-28T05:30:23.580Z,99419.98
2023-04-28T05:32:51.334Z,99418.77
2023-04-28T05:35:18.375Z,99419.30
2023-04-28T05:37:45.432Z,99421.71
2023-04-28T05:40:12.757Z,99419.80
2023-04-28T05:42:40.037Z,99423.62
2023-04-28T05:45:07.603Z,99421.54
2023-04-28T05:47:34.522Z,99422.23
2023-04-28T05:50:01.377Z,99422.05
2023-04-28T05:52:28.319Z,99425.52
2023-04-28T05:54:55.075Z,99428.96
2023-04-28T05:57:22.223Z,99428.27
2023-04-28T05:59:49.089Z,99435.36
2023-04-28T06:02:17.141Z,99432.92
2023-04-28T06:04:44.760Z,99435.70
2023-04-28T06:07:11.835Z,99431.02
2023-04-28T06:09:38.806Z,99440.73
2023-04-28T06:12:06.314Z,99437.95
2023-04-28T06:14:33.293Z,99433.62
2023-04-28T06:17:00.590Z,99434.14
2023-04-28T06:19:27.471Z,99438.80
2023-04-28T06:21:54.301Z,99438.11
2023-04-28T06:24:21.096Z,99437.77
2023-04-28T06:26:48.259Z,99439.50
2023-04-28T06:29:15.072Z,99442.26
2023-04-28T06:31:41.882Z,99439.85
2023-04-28T06:34:08.862Z,99437.93
2023-04-28T06:36:36.266Z,99441.90
2023-04-28T06:39:04.418Z,99439.48
2023-04-28T06:41:33.228Z,99443.29
2023-04-28T06:44:01.196Z,99441.72
2023-04-28T06:46:30.196Z,99443.61
2023-04-28T06:48:57.503Z,99443.26
2023-04-28T06:51:24.582Z,99444.96
2023-04-28T06:53:53.271Z,99442.20
2023-04-28T06:59:20.050Z,99440.77
2023-04-28T07:01:48.058Z,99442.33
2023-04-28T07:04:15.418Z,99444.90
2023-04-28T07:06:42.666Z,99441.05
2023-04-28T07:09:09.621Z,99441.38
2023-04-28T07:11:37.167Z,99436.17
2023-04-28T07:14:03.967Z,99440.48
2023-04-28T07:16:30.843Z,99438.35
2023-04-28T07:18:57.571Z,99440.02
2023-04-28T07:21:24.332Z,99437.71
2023-04-28T07:23:51.249Z,99430.90
2023-04-28T07:26:18.013Z,99429.28
2023-04-28T07:28:45.033Z,99430.06
2023-04-28T07:31:11.852Z,99423.90
2023-04-28T07:33:38.639Z,99429.20
2023-04-28T07:36:06.148Z,99426.88
2023-04-28T07:38:36.025Z,99429.25
2023-04-28T07:41:03.734Z,99426.65
2023-04-28T07:43:30.991Z,99422.31
2023-04-28T07:45:58.000Z,99417.10
2023-04-28T07:48:24.935Z,99412.02
2023-04-28T07:50:51.716Z,99415.26
2023-04-28T07:53:18.530Z,99421.21
2023-04-28T07:59:01.869Z,99418.07
2023-04-28T08:01:28.747Z,99422.80
2023-04-28T08:03:55.833Z,99415.04
2023-04-28T08:06:22.855Z,99417.71
2023-04-28T08:08:49.983Z,99420.23
2023-04-28T08:11:16.794Z,99419.70
2023-04-28T08:13:43.537Z,99420.23
2023-04-28T08:16:10.319Z,99413.83
2023-04-28T08:18:37.291Z,99415.61
2023-04-28T08:21:04.620Z,99421.56
2023-04-28T08:23:32.195Z,99418.80
2023-04-28T08:25:58.939Z,99415.31
2023-04-28T08:28:26.273Z,99414.53
2023-04-28T08:30:54.473Z,99411.88
2023-04-28T08:33:21.502Z,99412.89
2023-04-28T08:35:48.250Z,99418.83
2023-04-28T08:38:17.661Z,99410.27
2023-04-28T08:40:44.519Z,99413.61
2023-04-28T08:43:11.700Z,99414.13
2023-04-28T08:45:41.915Z,99418.55
2023-04-28T08:48:20.350Z,99418.27
2023-04-28T08:50:52.852Z,99418.11
2023-04-28T08:53:26.072Z,99410.84
2023-04-28T08:55:59.325Z,99410.65
2023-04-28T08:58:27.021Z,99407.50
2023-04-28T09:00:54.622Z,99413.33
2023-04-28T09:03:22.157Z,99407.02
2023-04-28T09:05:49.269Z,99398.89
2023-04-28T09:08:16.514Z,99392.42
2023-04-28T09:10:43.366Z,99392.02
2023-04-28T09:13:10.720Z,99393.58
2023-04-28T09:15:41.382Z,99391.41
2023-04-28T09:18:08.409Z,99392.59
2023-04-28T09:20:35.918Z,99398.47
2023-04-28T09:23:19.078Z,99392.58
2023-04-28T09:26:04.029Z,99392.58
2023-04-28T09:28:32.261Z,99389.70
2023-04-28T09:30:59.320Z,99389.31
2023-04-28T09:33:26.439Z,99384.45
2023-04-28T09:35:53.652Z,99389.11
2023-04-28T09:38:21.997Z,99377.43
2023-04-28T09:41:00.137Z,99381.21
2023-04-28T09:43:32.302Z,99380.50
2023-04-28T09:46:05.316Z,99379.31
2023-04-28T09:48:39.214Z,99377.23
2023-04-28T09:51:10.986Z,99376.85
2023-04-28T09:53:39.724Z,99377.59
2023-04-28T09:56:08.210Z,99375.75
2023-04-28T09:58:35.913Z,99372.69
2023-04-28T10:01:03.215Z,99365.89
2023-04-28T10:03:30.895Z,99366.59
2023-04-28T10:05:58.580Z,99366.81
2023-04-28T10:08:27.249Z,99361.55
2023-04-28T10:10:54.798Z,99355.95
2023-04-28T10:13:22.203Z,99359.92
2023-04-28T10:15:50.209Z,99351.80
2023-04-28T10:18:17.056Z,99349.48
2023-04-28T10:20:46.069Z,99346.05
2023-04-28T10:23:38.360Z,99338.70
2023-04-28T10:26:05.537Z,99335.33
2023-04-28T10:28:32.269Z,99338.98
2023-04-28T10:31:21.536Z,99339.99
2023-04-28T10:33:49.650Z,99341.55
2023-04-28T10:36:54.790Z,99335.45
2023-04-28T10:39:21.592Z,99338.36
2023-04-28T10:41:49.284Z,99336.85
2023-04-28T10:44:28.796Z,99334.94
2023-04-28T10:47:13.976Z,99332.23
2023-04-28T10:49:57.685Z,99337.73
2023-04-28T10:52:37.843Z,99331.54
2023-04-28T10:55:40.378Z,99330.25
2023-04-28T10:58:16.860Z,99322.39
2023-04-28T11:00:45.496Z,99317.99
2023-04-28T11:03:44.515Z,99320.27
2023-04-28T11:06:28.777Z,99316.91
2023-04-28T11:08:57.528Z,99312.12
2023-04-28T11:11:28.026Z,99308.50
2023-04-28T11:14:21.101Z,99312.01
2023-04-28T11:16:49.509Z,99304.57
2023-04-28T11:19:18.860Z,99301.18
2023-04-28T11:21:45.632Z,99299.77
2023-04-28T11:24:12.736Z,99301.27
2023-04-28T11:26:39.534Z,99299.91
2023-04-28T11:29:06.314Z,99290.55
2023-04-28T11:31:33.148Z,99311.46
2023-04-28T11:34:14.503Z,99307.11
2023-04-28T11:36:41.624Z,99302.95
2023-04-28T11:39:09.802Z,99295.88
2023-04-28T11:41:37.983Z,99295.23
2023-04-28T11:45:37.859Z,99292.18
2023-04-28T11:48:22.174Z,99290.83
2023-04-28T11:50:48.981Z,99288.63
2023-04-28T11:53:16.790Z,99288.08
2023-04-28T11:55:44.035Z,99279.63
2023-04-28T11:58:24.090Z,99284.98
2023-04-28T12:01:13.849Z,99283.89
2023-04-28T12:03:47.625Z,99281.42
2023-04-28T12:06:21.100Z,99278.20
2023-04-28T12:08:49.004Z,99275.09
2023-04-28T12:11:20.136Z,99277.02
2023-04-28T12:14:03.586Z,99282.36
2023-04-28T12:16:39.278Z,99277.87
2023-04-28T12:19:10.061Z,99270.61
2023-04-28T12:21:40.555Z,99265.50
2023-04-28T12:24:20.914Z,99265.27
2023-04-28T12:26:48.786Z,99260.79
2023-04-28T12:29:38.317Z,99254.13
2023-04-28T12:32:09.558Z,99252.67
2023-04-28T12:34:36.865Z,99254.91
2023-04-28T12:37:05.979Z,99254.80
2023-04-28T12:39:34.898Z,99246.21
2023-04-28T12:42:02.941Z,99237.27
2023-04-28T12:44:36.842Z,99239.64
2023-04-28T12:47:05.038Z,99231.30
2023-04-28T12:49:32.171Z,99221.27
2023-04-28T12:51:59.040Z,99220.59
2023-04-28T12:54:25.817Z,99219.27
2023-04-28T12:56:54.535Z,99222.78
2023-04-28T12:59:23.344Z,99224.35
2023-04-28T13:01:50.688Z,99214.98
2023-04-28T13:04:18.919Z,99205.53
2023-04-28T13:06:46.712Z,99201.69
2023-04-28T13:09:15.278Z,99200.32
2023-04-28T13:11:42.398Z,99202.23
2023-04-28T13:14:09.182Z,99191.83
2023-04-28T13:16:36.048Z,99193.21
2023-04-28T13:19:03.887Z,99187.84
2023-04-28T13:21:31.970Z,99186.42
2023-04-28T13:23:58.830Z,99186.39
2023-04-28T13:26:26.894Z,99172.98
2023-04-28T13:28:53.706Z,99169.53
2023-04-28T13:31:21.107Z,99168.14
2023-04-28T13:33:47.908Z,99164.61
2023-04-28T13:36:14.746Z,99172.10
2023-04-28T13:38:41.586Z,99166.55
2023-04-28T13:41:08.345Z,99158.42
2023-04-28T13:43:35.222Z,99156.01
2023-04-28T13:46:02.148Z,99155.54
2023-04-28T13:48:29.330Z,99157.98
2023-04-28T13:50:56.416Z,99152.66
2023-04-28T13:53:23.255Z,99147.51
2023-04-28T13:55:51.435Z,99150.13
2023-04-28T13:58:18.197Z,99146.30
2023-04-28T14:00:45.280Z,99143.35
2023-04-28T14:03:12.145Z,99147.91
2023-04-28T14:05:48.912Z,99141.14
2023-04-28T14:08:18.823Z,99135.92
2023-04-28T14:10:48.127Z,99134.94
2023-04-28T14:13:15.064Z,99127.85
2023-04-28T14:15:51.327Z,99125.40
2023-04-28T14:18:25.169Z,99120.46
2023-04-28T14:20:52.042Z,99123.52
2023-04-28T14:23:18.792Z,99126.98
2023-04-28T14:25:45.536Z,99117.55
2023-04-28T14:28:12.391Z,99116.10
2023-04-28T14:30:39.144Z,99104.51
2023-04-28T14:33:06.959Z,99109.41
2023-04-28T14:35:34.664Z,99108.64
2023-04-28T14:38:01.425Z,99108.98
2023-04-28T14:40:28.165Z,99105.86
2023-04-28T14:42:55.000Z,99107.77
2023-04-28T14:45:22.147Z,99101.72
2023-04-28T14:47:49.801Z,99101.73
2023-04-28T14:50:16.878Z,99101.86
2023-04-28T14:52:44.204Z,99102.70
2023-04-28T14:55:10.992Z,99101.59
2023-04-28T14:57:38.379Z,99094.44
2023-04-28T15:00:07.962Z,99099.08
2023-04-28T15:02:34.995Z,99107.58
2023-04-28T15:05:02.297Z,99104.14
2023-04-28T15:07:31.735Z,99106.13
2023-04-28T15:09:59.743Z,99093.23
2023-04-28T15:12:26.980Z,99096.65
2023-04-28T15:14:54.075Z,99098.15
2023-04-28T15:17:26.076Z,99104.69
2023-04-28T15:19:52.985Z,99099.23
2023-04-28T15:22:19.733Z,99095.34
2023-04-28T15:24:46.728Z,99092.37
2023-04-28T15:27:13.936Z,99092.55
2023-04-28T15:29:40.914Z,99094.64
2023-04-28T15:32:07.923Z,99093.30
2023-04-28T15:34:35.292Z,99096.65
2023-04-28T15:37:02.430Z,99096.71
2023-04-28T15:39:29.705Z,99097.73
2023-04-28T15:41:56.446Z,99098.92
2023-04-28T15:44:23.207Z,99100.07
2023-04-28T15:46:52.536Z,99100.54
2023-04-28T15:49:19.518Z,99100.77
2023-04-28T15:51:46.886Z,99095.38
2023-04-28T15:54:13.661Z,99094.17
2023-04-28T15:56:40.616Z,99093.94
2023-04-28T15:59:07.721Z,99095.20
2023-04-28T16:01:34.558Z,99090.85
2023-04-28T16:04:01.769Z,99092.91
2023-04-28T16:06:30.310Z,99089.98
2023-04-28T16:08:57.195Z,99092.10
2023-04-28T16:11:24.457Z,99092.70
2023-04-28T16:13:51.445Z,99087.14
2023-04-28T16:16:18.346Z,99088.70
2023-04-28T16:18:45.937Z,99092.35
2023-04-28T16:21:16.449Z,99095.38
2023-04-28T16:23:43.365Z,99095.44
2023-04-28T16:26:10.145Z,99094.45
2023-04-28T16:28:36.937Z,99100.81
2023-04-28T16:31:03.781Z,99098.14
2023-04-28T16:33:31.060Z,99096.68
2023-04-28T16:35:58.028Z,99095.04
2023-04-28T16:38:24.769Z,99090.77
2023-04-28T16:40:52.235Z,99091.83
2023-04-28T16:43:19.119Z,99093.84
2023-04-28T16:45:45.899Z,99093.42
2023-04-28T16:48:15.229Z,99091.25
2023-04-28T16:50:42.242Z,99089.80
2023-04-28T16:53:09.018Z,99091.10
2023-04-28T16:55:38.968Z,99094.89
2023-04-28T16:58:06.429Z,99094.34
2023-04-28T17:00:33.451Z,99094.47
2023-04-28T17:03:00.748Z,99091.78
2023-04-28T17:05:29.364Z,99089.64
2023-04-28T17:07:57.888Z,99088.04
2023-04-28T17:10:26.100Z,99089.23
2023-04-28T17:12:53.024Z,99097.90
2023-04-28T17:15:19.838Z,99097.20
2023-04-28T17:17:49.944Z,99097.38
2023-04-28T17:20:20.858Z,99097.05
2023-04-28T17:22:48.734Z,99094.09
2023-04-28T17:25:16.078Z,99095.98
2023-04-28T17:27:43.327Z,99097.35
2023-04-28T17:30:11.510Z,99100.44
2023-04-28T17:32:38.386Z,99101.98
2023-04-28T17:35:06.151Z,99104.04
2023-04-28T17:37:33.710Z,99104.34
2023-04-28T17:40:01.624Z,99099.09
2023-04-28T17:42:34.606Z,99099.21
2023-04-28T17:45:01.618Z,99100.89
2023-04-28T17:47:28.423Z,99098.57
2023-04-28T17:49:55.500Z,99103.86
2023-04-28T17:52:22.648Z,99098.44
2023-04-28T17:54:49.683Z,99106.89
2023-04-28T17:57:17.888Z,99102.86
2023-04-28T17:59:46.574Z,99106.42
2023-04-28T18:02:13.622Z,99109.11
2023-04-28T18:04:40.651Z,99112.83
2023-04-28T18:07:07.987Z,99112.21
2023-04-28T18:09:34.809Z,99114.86
2023-04-28T18:12:05.377Z,99119.61
2023-04-28T18:14:32.217Z,99124.55
2023-04-28T18:16:59.059Z,99124.10
2023-04-28T18:19:27.623Z,99125.37
2023-04-28T18:21:58.152Z,99123.67
2023-04-28T18:24:24.974Z,99127.50
2023-04-28T18:26:51.992Z,99128.91
2023-04-28T18:29:20.394Z,99133.10
2023-04-28T18:31:47.283Z,99131.57
2023-04-28T18:34:14.238Z,99135.23
2023-04-28T18:36:41.563Z,99138.02
2023-04-28T18:39:09.252Z,99139.75
2023-04-28T18:41:36.496Z,99139.09
2023-04-28T18:44:03.452Z,99142.05
2023-04-28T18:46:30.916Z,99145.35
2023-04-28T18:48:58.065Z,99149.33
2023-04-28T18:51:24.882Z,99153.84
2023-04-28T18:53:51.589Z,99148.31
2023-04-28T18:56:18.559Z,99154.04
2023-04-28T18:58:47.304Z,99150.41
2023-04-28T19:01:17.860Z,99155.94
2023-04-28T19:03:45.006Z,99153.53
2023-04-28T19:06:12.169Z,99153.88
2023-04-28T19:08:39.388Z,99155.95
2023-04-28T19:11:08.274Z,99155.95
2023-04-28T19:13:38.219Z,99158.89
2023-04-28T19:16:05.370Z,99158.71
2023-04-28T19:18:32.474Z,99159.06
2023-04-28T19:21:03.012Z,99159.56
2023-04-28T19:23:30.606Z,99155.94
2023-04-28T19:25:58.433Z,99154.20
2023-04-28T19:28:26.352Z,99156.08
2023-04-28T19:30:54.141Z,99152.98
2023-04-28T19:33:24.885Z,99153.30
2023-04-28T19:35:56.052Z,99154.15
2023-04-28T19:38:23.570Z,99149.99
2023-04-28T19:40:53.827Z,99148.58
2023-04-28T19:43:20.821Z,99145.09
2023-04-28T19:45:47.752Z,99145.59
2023-04-28T19:48:14.861Z,99142.13
2023-04-28T19:50:42.339Z,99140.21
2023-04-28T19:53:09.475Z,99140.38
2023-04-28T19:55:36.837Z,99139.48
2023-04-28T19:58:04.234Z,99141.89
2023-04-28T20:00:32.550Z,99142.88
2023-04-28T20:03:00.312Z,99142.16
2023-04-28T20:05:27.536Z,99141.09
2023-04-28T20:07:56.122Z,99142.61
2023-04-28T20:10:23.887Z,99145.51
2023-04-28T20:12:50.956Z,99148.41
2023-04-28T20:15:18.541Z,99146.83
2023-04-28T20:17:46.236Z,99152.48
2023-04-28T20:20:13.504Z,99152.46
2023-04-28T20:22:43.328Z,99153.29
2023-04-28T20:25:10.811Z,99154.80
2023-04-28T20:27:37.863Z,99152.36
2023-04-28T20:30:05.642Z,99149.39
2023-04-28T20:32:32.686Z,99147.98
2023-04-28T20:34:59.758Z,99152.08
2023-04-28T20:37:26.677Z,99155.66
2023-04-28T20:39:53.701Z,99150.66
2023-04-28T20:42:20.561Z,99150.64
2023-04-28T20:44:47.304Z,99150.29
2023-04-28T20:47:14.300Z,99150.95
2023-04-28T20:49:42.326Z,99145.77
2023-04-28T20:52:09.342Z,99147.80
2023-04-28T20:54:36.545Z,99143.13
2023-04-28T20:57:05.290Z,99142.92
2023-04-28T20:59:32.801Z,99137.04
2023-04-28T21:02:00.489Z,99138.20
2023-04-28T21:04:28.445Z,99137.48
2023-04-28T21:06:55.652Z,99138.98
2023-04-28T21:09:25.293Z,99134.48
2023-04-28T21:11:52.689Z,99136.69
2023-04-28T21:14:20.328Z,99143.69
2023-04-28T21:16:47.357Z,99143.63
2023-04-28T21:19:14.236Z,99143.73
2023-04-28T21:21:41.128Z,99148.67
2023-04-28T21:24:09.290Z,99147.60
2023-04-28T21:26:37.034Z,99146.53
2023-04-28T21:29:03.893Z,99148.56
2023-04-28T21:31:31.348Z,99154.05
2023-04-28T21:33:58.216Z,99152.83
2023-04-28T21:36:25.064Z,99156.27
2023-04-28T21:38:51.958Z,99156.73
2023-04-28T21:41:18.740Z,99156.90
2023-04-28T21:43:46.044Z,99158.43
2023-04-28T21:46:13.244Z,99157.55
2023-04-28T21:48:40.130Z,99162.50
2023-04-28T21:51:07.065Z,99168.79
2023-04-28T21:53:34.535Z,99167.54
2023-04-28T21:56:02.113Z,99167.84
2023-04-28T21:58:28.865Z,99168.82
2023-04-28T22:00:55.624Z,99163.45
2023-04-28T22:03:22.951Z,99164.63
2023-04-28T22:05:49.916Z,99161.33
2023-04-28T22:08:17.225Z,99160.77
2023-04-28T22:10:45.625Z,99159.38
2023-04-28T22:13:13.122Z,99156.94
2023-04-28T22:15:40.168Z,99154.33
2023-04-28T22:18:08.301Z,99149.81
2023-04-28T22:20:35.972Z,99149.09
2023-04-28T22:23:02.793Z,99150.23
2023-04-28T22:25:29.636Z,99150.35
2023-04-28T22:27:56.500Z,99150.11
2023-04-28T22:30:25.813Z,99147.66
2023-04-28T22:32:53.515Z,99148.13
2023-04-28T22:35:20.443Z,99146.88
2023-04-28T22:37:47.294Z,99145.62
2023-04-28T22:40:14.137Z,99144.02
2023-04-28T22:42:41.526Z,99145.16
2023-04-28T22:45:10.274Z,99141.87
2023-04-28T22:47:38.508Z,99140.80
2023-04-28T22:50:06.760Z,99138.88
2023-04-28T22:52:34.197Z,99136.95
2023-04-28T22:55:01.193Z,99135.55
2023-04-28T22:57:28.246Z,99128.50
2023-04-28T22:59:55.483Z,99128.13
2023-04-28T23:02:23.243Z,99127.08
2023-04-28T23:04:50.500Z,99125.52
2023-04-28T23:07:17.391Z,99127.54
2023-04-28T23:09:44.142Z,99122.19
2023-04-28T23:12:11.013Z,99119.77
2023-04-28T23:14:38.305Z,99119.78
2023-04-28T23:17:05.333Z,99117.37
2023-04-28T23:19:32.250Z,99113.04
2023-04-28T23:21:59.037Z,99116.27
2023-04-28T23:24:27.259Z,99113.48
2023-04-28T23:26:54.334Z,99109.66
2023-04-28T23:29:21.141Z,99105.70
2023-04-28T23:31:52.757Z,99103.42
2023-04-28T23:34:19.926Z,99096.35
2023-04-28T23:36:46.702Z,99095.65
2023-04-28T23:39:13.672Z,99095.98
2023-04-28T23:41:41.211Z,99094.38
2023-04-28T23:44:08.390Z,99099.30
2023-04-28T23:46:35.211Z,99095.83
2023-04-28T23:49:02.293Z,99097.45
2023-04-28T23:51:30.268Z,99095.66
2023-04-28T23:53:57.086Z,99095.92
2023-04-28T23:56:23.794Z,99093.48
2023-04-28T23:58:51.190Z,99090.89
